Time;durP1;ratioP1;P1;durP2;ratioP2;P2;SDS_P1;SDS_P2;PMS_P1;PMS_P2;Temp;Humidity;BMP_temperature;BMP_pressure;BME280_temperature;BME280_humidity;BME280_pressure;Samples;Min_cycle;Max_cycle;Signal;HPM_P1;HPM_P2
2021/10/06 00:01:26;;;;;;;2.40;1.65;;;;;;;10.11;100.00;95391.44;5052941;28;20048;-78
2021/10/06 00:03:52;;;;;;;3.58;1.50;;;;;;;10.14;100.00;95400.63;5048588;28;20043;-78
2021/10/06 00:06:18;;;;;;;5.13;1.70;;;;;;;10.14;100.00;95406.69;5048514;28;20076;-78
2021/10/06 00:08:44;;;;;;;2.15;1.50;;;;;;;10.23;100.00;95410.34;5071731;28;20490;-78
2021/10/06 00:11:10;;;;;;;3.88;1.60;;;;;;;10.32;100.00;95413.19;5072721;28;20036;-78
2021/10/06 00:13:35;;;;;;;2.60;1.50;;;;;;;10.33;100.00;95413.97;5070721;28;20049;-79
2021/10/06 00:16:01;;;;;;;2.97;1.65;;;;;;;10.27;100.00;95415.03;5062521;28;20037;-78
2021/10/06 00:18:27;;;;;;;2.42;1.52;;;;;;;10.32;100.00;95420.31;5068936;28;20045;-78
2021/10/06 00:20:53;;;;;;;4.80;1.70;;;;;;;10.35;100.00;95423.19;5068686;28;20044;-78
2021/10/06 00:23:19;;;;;;;2.33;1.60;;;;;;;10.32;100.00;95428.19;5069231;28;20049;-78
2021/10/06 00:25:44;;;;;;;4.28;1.70;;;;;;;10.26;100.00;95429.25;5071127;28;20508;-78
2021/10/06 00:28:10;;;;;;;2.38;1.80;;;;;;;10.18;100.00;95422.72;5071355;28;20048;-79
2021/10/06 00:30:36;;;;;;;4.78;1.48;;;;;;;10.22;100.00;95429.00;5071496;28;20044;-78
2021/10/06 00:33:02;;;;;;;2.30;1.50;;;;;;;10.18;100.00;95428.75;5063791;28;20133;-78
2021/10/06 00:35:27;;;;;;;3.90;1.50;;;;;;;10.17;100.00;95432.44;5071310;28;20479;-78
2021/10/06 00:37:53;;;;;;;2.70;1.45;;;;;;;10.19;100.00;95438.22;5070966;28;20048;-78
2021/10/06 00:40:19;;;;;;;3.13;1.60;;;;;;;10.25;100.00;95435.59;5052979;28;20032;-78
2021/10/06 00:42:44;;;;;;;3.17;1.50;;;;;;;10.18;100.00;95452.41;5056839;28;20036;-78
2021/10/06 00:45:10;;;;;;;2.67;1.42;;;;;;;10.15;100.00;95460.06;5067063;28;20033;-78
2021/10/06 00:47:36;;;;;;;4.13;1.70;;;;;;;10.17;100.00;95453.50;5047780;28;20041;-78
2021/10/06 00:50:03;;;;;;;10.50;2.00;;;;;;;10.19;100.00;95464.53;5056836;28;20044;-78
2021/10/06 00:52:28;;;;;;;4.63;1.92;;;;;;;10.14;100.00;95464.56;5071302;28;20052;-78
2021/10/06 00:54:53;;;;;;;5.53;2.20;;;;;;;10.09;100.00;95456.66;5067562;28;20140;-78
2021/10/06 00:57:19;;;;;;;5.28;1.88;;;;;;;10.10;100.00;95463.50;5056573;28;20044;-78
2021/10/06 00:59:45;;;;;;;5.30;2.20;;;;;;;10.14;100.00;95461.91;5046998;28;20044;-79
2021/10/06 01:02:10;;;;;;;6.13;2.28;;;;;;;10.13;100.00;95470.84;5070154;28;20097;-78
2021/10/06 01:04:37;;;;;;;4.30;2.17;;;;;;;10.05;100.00;95466.13;5064598;28;20490;-78
2021/10/06 01:07:03;;;;;;;7.40;2.40;;;;;;;10.10;100.00;95467.97;5046999;28;20044;-78
2021/10/06 01:09:30;;;;;;;7.13;2.30;;;;;;;10.05;100.00;95471.38;5053381;28;20046;-78
2021/10/06 01:11:57;;;;;;;5.20;2.08;;;;;;;9.99;100.00;95467.22;5071161;28;20045;-78
2021/10/06 01:14:24;;;;;;;3.25;1.80;;;;;;;9.93;100.00;95473.50;5070441;28;20075;-79
2021/10/06 01:16:51;;;;;;;3.13;1.75;;;;;;;9.92;100.00;95483.25;5069297;28;20086;-78
2021/10/06 01:19:28;;;;;;;3.30;1.70;;;;;;;9.92;100.00;95482.47;5048521;28;20040;-78
2021/10/06 01:21:55;;;;;;;3.78;1.65;;;;;;;9.89;100.00;95487.19;5070941;28;20071;-78
2021/10/06 01:24:22;;;;;;;3.25;1.70;;;;;;;9.84;100.00;95481.94;5053542;28;20514;-78
2021/10/06 01:26:47;;;;;;;3.35;1.40;;;;;;;9.86;100.00;95490.34;5069781;28;20048;-78
2021/10/06 01:29:16;;;;;;;2.28;1.58;;;;;;;9.80;100.00;95486.16;5071142;28;20044;-78
2021/10/06 01:31:43;;;;;;;1.90;1.40;;;;;;;9.85;100.00;95494.00;5070985;28;20037;-78
2021/10/06 01:34:08;;;;;;;2.33;1.42;;;;;;;9.88;100.00;95493.50;5063627;28;20033;-78
2021/10/06 01:36:35;;;;;;;2.50;1.50;;;;;;;9.84;100.00;95497.72;5051068;28;20047;-78
2021/10/06 01:39:02;;;;;;;2.75;1.50;;;;;;;9.84;100.00;95495.09;5070078;28;20036;-78
2021/10/06 01:41:31;;;;;;;2.00;1.40;;;;;;;9.73;100.00;95490.91;5072962;28;20115;-78
2021/10/06 01:43:56;;;;;;;2.88;1.55;;;;;;;9.75;100.00;95499.28;5074710;28;20040;-78
2021/10/06 01:46:22;;;;;;;2.72;1.50;;;;;;;9.70;100.00;95488.78;5055688;28;20082;-78
2021/10/06 01:48:47;;;;;;;1.73;1.30;;;;;;;9.80;100.00;95491.41;5073114;28;20036;-78
2021/10/06 01:51:13;;;;;;;1.92;1.38;;;;;;;9.77;100.00;95486.69;5056135;28;20462;-78
2021/10/06 01:53:40;;;;;;;4.00;1.52;;;;;;;9.76;100.00;95490.34;5073466;28;20046;-78
2021/10/06 01:56:05;;;;;;;4.03;1.40;;;;;;;9.77;100.00;95493.75;5074814;28;20123;-78
2021/10/06 01:58:32;;;;;;;3.03;1.48;;;;;;;9.73;100.00;95485.63;5074143;28;20072;-78
2021/10/06 02:00:57;;;;;;;2.45;1.30;;;;;;;9.62;100.00;95490.09;5074260;28;20045;-78
2021/10/06 02:03:23;;;;;;;2.50;1.38;;;;;;;9.60;100.00;95486.94;5052059;28;20048;-78
2021/10/06 02:05:49;;;;;;;4.18;1.30;;;;;;;9.63;100.00;95491.69;5051206;28;20063;-78
2021/10/06 02:08:15;;;;;;;4.43;1.60;;;;;;;9.65;100.00;95491.41;5069603;28;20163;-78
2021/10/06 02:10:42;;;;;;;3.70;1.60;;;;;;;9.60;100.00;95502.72;5073110;28;20063;-78
2021/10/06 02:13:08;;;;;;;4.57;1.60;;;;;;;9.63;100.00;95496.16;5056007;28;20095;-78
2021/10/06 02:15:34;;;;;;;3.13;1.50;;;;;;;9.59;100.00;95500.34;5073557;28;20422;-78
2021/10/06 02:18:00;;;;;;;3.40;1.40;;;;;;;9.61;100.00;95508.75;5071780;28;20063;-78
2021/10/06 02:20:27;;;;;;;1.88;1.30;;;;;;;9.59;100.00;95505.59;5072837;28;20041;-79
2021/10/06 02:22:52;;;;;;;3.42;1.35;;;;;;;9.54;100.00;95509.81;5061965;28;20056;-78
2021/10/06 02:25:18;;;;;;;5.78;1.40;;;;;;;9.57;100.00;95513.75;5071292;28;20041;-78
2021/10/06 02:27:44;;;;;;;2.95;1.20;;;;;;;9.56;100.00;95508.75;5072780;28;20106;-78
2021/10/06 02:30:11;;;;;;;3.05;1.20;;;;;;;9.51;100.00;95515.59;5073201;28;20086;-78
2021/10/06 02:32:37;;;;;;;1.95;1.33;;;;;;;9.47;100.00;95519.78;5056514;28;20048;-78
2021/10/06 02:35:04;;;;;;;6.45;1.38;;;;;;;9.51;100.00;95520.84;5067527;28;20059;-78
2021/10/06 02:37:30;;;;;;;1.65;1.10;;;;;;;9.48;100.00;95510.06;5071151;28;20044;-78
2021/10/06 02:39:55;;;;;;;1.95;1.38;;;;;;;9.42;100.00;95506.63;5072923;28;20712;-78
2021/10/06 02:42:20;;;;;;;2.65;1.23;;;;;;;9.38;100.00;95505.59;5073055;28;20068;-78
2021/10/06 02:44:46;;;;;;;2.35;1.50;;;;;;;9.41;100.00;95501.66;5073623;28;20041;-78
2021/10/06 02:47:12;;;;;;;4.85;1.50;;;;;;;9.48;100.00;95505.59;5045311;28;20420;-78
2021/10/06 02:49:38;;;;;;;3.35;1.25;;;;;;;9.41;100.00;95510.34;5071405;28;20045;-78
2021/10/06 02:52:04;;;;;;;5.00;1.35;;;;;;;9.41;100.00;95505.09;5053431;28;20094;-78
2021/10/06 02:54:30;;;;;;;2.45;1.40;;;;;;;9.38;100.00;95516.13;5047234;28;20461;-80
2021/10/06 02:57:01;;;;;;;4.57;1.17;;;;;;;9.37;100.00;95517.16;5065700;28;20044;-78
2021/10/06 02:59:28;;;;;;;1.88;1.30;;;;;;;9.34;100.00;95521.09;5071543;28;20036;-78
2021/10/06 03:01:55;;;;;;;2.53;1.10;;;;;;;9.30;100.00;95519.25;5068639;28;20530;-78
2021/10/06 03:04:21;;;;;;;4.95;1.42;;;;;;;9.23;100.00;95523.97;5066017;28;20575;-78
2021/10/06 03:06:46;;;;;;;5.38;1.73;;;;;;;9.18;100.00;95522.91;5070574;28;20060;-78
2021/10/06 03:09:12;;;;;;;4.78;1.40;;;;;;;9.14;100.00;95511.34;5070917;28;20765;-78
2021/10/06 03:11:38;;;;;;;6.45;1.40;;;;;;;9.17;100.00;95516.06;5069685;28;20129;-77
2021/10/06 03:14:04;;;;;;;6.95;1.40;;;;;;;9.18;100.00;95520.28;5053095;28;20603;-78
2021/10/06 03:16:30;;;;;;;3.78;1.42;;;;;;;9.15;100.00;95515.53;5067521;28;20035;-78
2021/10/06 03:18:55;;;;;;;1.80;1.35;;;;;;;9.19;100.00;95519.22;5069579;28;20041;-77
2021/10/06 03:21:21;;;;;;;1.63;1.30;;;;;;;9.23;100.00;95530.00;5069590;28;20044;-78
2021/10/06 03:23:46;;;;;;;5.85;1.45;;;;;;;9.11;100.00;95524.22;5069729;28;20044;-78
2021/10/06 03:26:12;;;;;;;2.83;1.30;;;;;;;9.07;100.00;95526.53;5066011;28;20097;-78
2021/10/06 03:28:38;;;;;;;3.30;1.27;;;;;;;9.07;100.00;95526.53;5070740;28;20120;-78
2021/10/06 03:31:03;;;;;;;3.22;1.50;;;;;;;9.07;100.00;95531.00;5069889;28;20048;-78
2021/10/06 03:33:29;;;;;;;5.88;1.70;;;;;;;9.00;100.00;95532.03;5068017;28;20040;-78
2021/10/06 03:35:55;;;;;;;4.60;1.50;;;;;;;8.98;100.00;95535.97;5069413;28;20040;-78
2021/10/06 03:38:20;;;;;;;3.40;1.73;;;;;;;8.96;100.00;95546.72;5048922;28;20048;-78
2021/10/06 03:40:46;;;;;;;8.80;1.60;;;;;;;8.96;100.00;95545.94;5047735;28;20490;-78
2021/10/06 03:43:12;;;;;;;6.97;1.70;;;;;;;8.90;100.00;95544.34;5070238;28;20512;-78
2021/10/06 03:45:37;;;;;;;3.00;1.52;;;;;;;8.96;100.00;95540.69;5046588;28;20033;-78
2021/10/06 03:48:03;;;;;;;3.55;1.70;;;;;;;8.95;100.00;95549.59;5065817;28;20570;-77
2021/10/06 03:50:29;;;;;;;3.83;1.42;;;;;;;8.92;100.00;95550.13;5069642;28;20076;-78
2021/10/06 03:52:54;;;;;;;6.13;1.40;;;;;;;8.94;100.00;95558.53;5052475;28;20521;-77
2021/10/06 03:55:20;;;;;;;5.05;1.40;;;;;;;8.92;100.00;95565.88;5051793;28;20082;-78
2021/10/06 03:57:45;;;;;;;3.38;1.30;;;;;;;8.87;100.00;95571.09;5053192;28;20067;-78
2021/10/06 04:00:12;;;;;;;3.78;1.38;;;;;;;8.89;100.00;95571.63;5069754;28;20041;-77
2021/10/06 04:02:38;;;;;;;5.95;1.60;;;;;;;8.87;100.00;95569.25;5069218;28;20127;-78
2021/10/06 04:05:06;;;;;;;5.75;1.30;;;;;;;8.94;100.00;95582.16;5068907;28;20048;-78
2021/10/06 04:07:31;;;;;;;4.60;1.50;;;;;;;8.84;100.00;95588.16;5064081;28;20102;-78
2021/10/06 04:09:57;;;;;;;5.18;1.60;;;;;;;8.82;100.00;95593.66;5070538;28;20513;-78
2021/10/06 04:12:23;;;;;;;4.97;1.63;;;;;;;8.82;100.00;95588.41;5071085;28;20048;-77
2021/10/06 04:14:48;;;;;;;6.07;1.80;;;;;;;8.85;100.00;95592.34;5068413;28;20043;-78
2021/10/06 04:17:14;;;;;;;4.78;1.60;;;;;;;8.86;100.00;95601.00;5066847;28;20091;-77
2021/10/06 04:19:39;;;;;;;3.15;1.80;;;;;;;8.90;100.00;95596.84;5058715;28;20048;-78
2021/10/06 04:22:05;;;;;;;5.50;1.50;;;;;;;8.84;100.00;95596.81;5061755;28;20534;-78
2021/10/06 04:24:30;;;;;;;5.57;1.38;;;;;;;8.88;100.00;95601.53;5066929;28;20123;-78
2021/10/06 04:26:56;;;;;;;4.63;1.45;;;;;;;8.87;100.00;95605.22;5051098;28;20049;-78
2021/10/06 04:29:21;;;;;;;7.15;1.35;;;;;;;8.83;100.00;95605.75;5069963;28;20044;-78
2021/10/06 04:31:47;;;;;;;6.00;1.55;;;;;;;8.84;100.00;95602.06;5068805;28;20043;-78
2021/10/06 04:34:13;;;;;;;3.95;1.40;;;;;;;8.80;100.00;95600.97;5051938;28;20051;-77
2021/10/06 04:36:38;;;;;;;3.38;1.40;;;;;;;8.84;100.00;95607.28;5065693;28;20045;-77
2021/10/06 04:39:04;;;;;;;4.70;1.42;;;;;;;8.83;100.00;95608.38;5069043;28;20052;-77
2021/10/06 04:41:30;;;;;;;4.68;1.30;;;;;;;8.77;100.00;95606.75;5069394;28;20044;-78
2021/10/06 04:43:55;;;;;;;6.03;1.42;;;;;;;8.76;100.00;95615.66;5069243;28;20051;-78
2021/10/06 04:46:21;;;;;;;3.42;1.50;;;;;;;8.76;100.00;95615.66;5069460;28;20537;-78
2021/10/06 04:48:47;;;;;;;5.10;1.50;;;;;;;8.71;100.00;95617.47;5069450;28;20087;-78
2021/10/06 04:51:14;;;;;;;6.47;1.73;;;;;;;8.63;100.00;95616.09;5070302;28;20048;-78
2021/10/06 04:53:39;;;;;;;2.28;1.60;;;;;;;8.69;100.00;95620.34;5061848;28;20138;-79
2021/10/06 04:56:05;;;;;;;4.55;1.38;;;;;;;8.74;100.00;95620.38;5068137;28;20573;-78
2021/10/06 04:58:31;;;;;;;5.70;1.50;;;;;;;8.72;100.00;95625.09;5070133;28;20040;-78
2021/10/06 05:00:56;;;;;;;2.88;1.58;;;;;;;8.71;100.00;95623.50;5049108;28;20452;-79
2021/10/06 05:03:22;;;;;;;4.68;1.50;;;;;;;8.73;100.00;95631.91;5066912;28;20487;-79
2021/10/06 05:05:47;;;;;;;2.75;1.30;;;;;;;8.70;100.00;95627.16;5069580;28;20056;-79
2021/10/06 05:08:13;;;;;;;6.88;1.90;;;;;;;8.68;100.00;95629.28;5068588;28;20041;-78
2021/10/06 05:10:39;;;;;;;5.00;1.70;;;;;;;8.69;100.00;95635.28;5051918;28;20039;-78
2021/10/06 05:13:05;;;;;;;1.90;1.30;;;;;;;8.67;100.00;95640.78;5069145;28;20157;-78
2021/10/06 05:15:31;;;;;;;4.43;1.48;;;;;;;8.70;100.00;95648.16;5052296;28;20040;-78
2021/10/06 05:17:56;;;;;;;6.57;1.48;;;;;;;8.63;100.00;95637.09;5068056;28;20048;-79
2021/10/06 05:20:22;;;;;;;5.38;1.52;;;;;;;8.67;100.00;95648.66;5055167;28;20141;-78
2021/10/06 05:22:50;;;;;;;2.08;1.40;;;;;;;8.63;100.00;95644.97;5055671;28;20040;-79
2021/10/06 05:25:16;;;;;;;5.07;1.70;;;;;;;8.61;100.00;95660.19;5076721;28;20707;-78
2021/10/06 05:27:41;;;;;;;4.72;1.70;;;;;;;8.59;100.00;95657.81;5081779;28;20040;-79
2021/10/06 05:30:09;;;;;;;3.25;1.50;;;;;;;8.56;100.00;95660.94;5073918;28;20460;-79
2021/10/06 05:32:35;;;;;;;2.22;1.33;;;;;;;8.55;100.00;95666.41;5056362;28;20094;-78
2021/10/06 05:35:01;;;;;;;5.32;1.88;;;;;;;8.55;100.00;95661.97;5056286;28;20045;-78
2021/10/06 05:37:27;;;;;;;6.43;1.60;;;;;;;8.54;100.00;95664.84;5056044;28;20051;-78
2021/10/06 05:39:53;;;;;;;3.85;1.45;;;;;;;8.59;100.00;95672.75;5073498;28;20460;-78
2021/10/06 05:42:19;;;;;;;5.47;2.08;;;;;;;8.55;100.00;95672.47;5074622;28;20048;-78
2021/10/06 05:44:44;;;;;;;5.15;1.48;;;;;;;8.49;100.00;95679.50;5055247;28;20033;-79
2021/10/06 05:47:10;;;;;;;4.85;1.50;;;;;;;8.52;100.00;95680.03;5053831;28;20040;-78
2021/10/06 05:49:35;;;;;;;4.30;1.70;;;;;;;8.51;100.00;95686.34;5073111;28;20047;-79
2021/10/06 05:52:01;;;;;;;4.30;1.77;;;;;;;8.47;100.00;95684.19;5074488;28;20041;-78
2021/10/06 05:54:27;;;;;;;4.55;1.70;;;;;;;8.55;100.00;95687.41;5073354;28;20055;-78
2021/10/06 05:56:52;;;;;;;3.33;1.48;;;;;;;8.54;100.00;95686.63;5072761;28;20045;-79
2021/10/06 05:59:17;;;;;;;4.47;1.52;;;;;;;8.57;100.00;95695.81;5073157;28;20037;-78
2021/10/06 06:01:43;;;;;;;4.13;1.40;;;;;;;8.52;100.00;95695.78;5072574;28;20679;-78
2021/10/06 06:04:08;;;;;;;3.03;1.17;;;;;;;8.53;100.00;95694.75;5065191;28;20045;-78
2021/10/06 06:06:34;;;;;;;3.88;1.58;;;;;;;8.49;100.00;95695.25;5070709;28;20097;-78
2021/10/06 06:09:00;;;;;;;1.50;1.30;;;;;;;8.46;100.00;95701.00;5070758;28;20037;-78
2021/10/06 06:11:26;;;;;;;4.25;1.90;;;;;;;8.49;100.00;95699.69;5069649;28;20036;-78
2021/10/06 06:13:53;;;;;;;4.90;2.22;;;;;;;8.47;100.00;95702.56;5071220;28;20055;-77
2021/10/06 06:16:18;;;;;;;8.50;2.42;;;;;;;8.49;100.00;95705.75;5066281;28;20040;-77
2021/10/06 06:18:44;;;;;;;3.88;2.00;;;;;;;8.47;100.00;95713.06;5068737;28;20048;-77
2021/10/06 06:21:09;;;;;;;5.82;1.77;;;;;;;8.51;100.00;95712.56;5070514;28;20795;-77
2021/10/06 06:23:35;;;;;;;4.38;1.38;;;;;;;8.47;100.00;95713.06;5069237;28;20044;-77
2021/10/06 06:26:01;;;;;;;7.88;2.15;;;;;;;8.45;100.00;95715.16;5069143;28;20041;-76
2021/10/06 06:28:28;;;;;;;4.90;1.65;;;;;;;8.45;100.00;95715.16;5069167;28;20108;-76
2021/10/06 06:30:53;;;;;;;2.13;1.30;;;;;;;8.45;100.00;95720.41;5051962;28;20078;-76
2021/10/06 06:33:19;;;;;;;3.47;1.50;;;;;;;8.45;100.00;95730.88;5068895;28;20590;-78
2021/10/06 06:35:45;;;;;;;2.28;1.30;;;;;;;8.52;100.00;95729.88;5058085;28;20045;-75
2021/10/06 06:38:11;;;;;;;4.03;1.50;;;;;;;8.54;100.00;95738.31;5066545;28;20049;-76
2021/10/06 06:40:40;;;;;;;2.30;1.50;;;;;;;8.54;100.00;95738.31;5065430;28;20041;-76
2021/10/06 06:43:10;;;;;;;2.60;1.25;;;;;;;8.55;100.00;95747.72;5068323;28;20058;-76
2021/10/06 06:45:36;;;;;;;4.00;1.40;;;;;;;8.58;100.00;95740.16;5066538;28;20040;-76
2021/10/06 06:48:05;;;;;;;3.20;1.27;;;;;;;8.65;100.00;95750.47;5050961;28;20051;-76
2021/10/06 06:50:31;;;;;;;2.45;1.08;;;;;;;8.68;100.00;95755.19;5062262;28;20045;-76
2021/10/06 06:52:57;;;;;;;6.47;1.75;;;;;;;8.65;100.00;95759.09;5070038;28;20399;-76
2021/10/06 06:55:23;;;;;;;4.82;1.40;;;;;;;8.67;100.00;95754.38;5065871;28;20178;-77
2021/10/06 06:57:49;;;;;;;5.38;1.35;;;;;;;8.69;100.00;95756.75;5068468;28;20475;-78
2021/10/06 07:00:15;;;;;;;6.03;1.42;;;;;;;8.76;100.00;95762.59;5049392;28;20048;-77
2021/10/06 07:02:41;;;;;;;1.63;1.30;;;;;;;8.82;100.00;95766.84;5060562;28;20059;-76
2021/10/06 07:05:07;;;;;;;3.65;1.40;;;;;;;8.83;99.70;95763.19;5068433;28;20524;-77
2021/10/06 07:07:33;;;;;;;3.45;1.23;;;;;;;8.80;100.00;95768.91;5050060;28;20525;-76
2021/10/06 07:09:58;;;;;;;4.90;1.35;;;;;;;8.79;100.00;95767.38;5067879;28;20041;-76
2021/10/06 07:12:24;;;;;;;3.35;1.35;;;;;;;8.75;100.00;95766.28;5062278;28;20060;-76
2021/10/06 07:14:51;;;;;;;3.38;1.35;;;;;;;8.75;100.00;95761.03;5059270;28;20037;-76
2021/10/06 07:17:18;;;;;;;2.72;1.25;;;;;;;8.81;100.00;95778.38;5047942;28;20060;-76
2021/10/06 07:19:46;;;;;;;3.88;1.30;;;;;;;8.86;100.00;95776.84;5069418;28;20045;-76
2021/10/06 07:22:12;;;;;;;3.10;1.30;;;;;;;8.83;100.00;95783.38;5066024;28;20055;-76
2021/10/06 07:24:41;;;;;;;6.35;1.83;;;;;;;8.83;100.00;95778.94;5054854;28;20443;-75
2021/10/06 07:27:08;;;;;;;4.40;1.30;;;;;;;8.77;100.00;95779.94;5062999;28;20072;-76
2021/10/06 07:29:34;;;;;;;3.08;1.50;;;;;;;8.87;100.00;95778.44;5072571;28;20133;-76
2021/10/06 07:32:01;;;;;;;2.88;1.38;;;;;;;8.88;100.00;95780.00;5073207;28;20065;-76
2021/10/06 07:34:26;;;;;;;4.00;1.17;;;;;;;8.91;98.67;95782.94;5073246;28;20470;-76
2021/10/06 07:36:52;;;;;;;12.45;1.70;;;;;;;8.96;99.52;95782.16;5053297;28;20133;-76
2021/10/06 07:39:18;;;;;;;8.30;2.15;;;;;;;8.97;100.00;95786.38;5059192;28;20037;-75
2021/10/06 07:41:44;;;;;;;2.03;1.40;;;;;;;9.01;98.90;95790.09;5071243;28;20052;-75
2021/10/06 07:44:10;;;;;;;4.50;1.63;;;;;;;9.05;98.84;95796.41;5078093;28;20430;-77
2021/10/06 07:46:36;;;;;;;3.13;1.50;;;;;;;9.08;99.37;95795.91;5095207;28;20114;-77
2021/10/06 07:49:01;;;;;;;4.53;1.30;;;;;;;9.15;99.21;95799.09;5095887;28;20051;-77
2021/10/06 07:51:27;;;;;;;3.25;1.30;;;;;;;9.23;98.61;95791.81;5078318;28;20039;-77
2021/10/06 07:53:53;;;;;;;5.03;1.63;;;;;;;9.32;98.41;95795.53;5075873;28;20048;-77
2021/10/06 07:56:18;;;;;;;3.90;1.80;;;;;;;9.35;97.91;95789.75;5096181;28;20136;-77
2021/10/06 07:58:44;;;;;;;4.72;1.40;;;;;;;9.42;97.35;95784.28;5095909;28;20032;-77
2021/10/06 08:01:10;;;;;;;4.45;1.65;;;;;;;9.46;97.92;95791.41;5096016;28;20060;-76
2021/10/06 08:03:35;;;;;;;4.75;1.70;;;;;;;9.53;97.42;95791.97;5077972;28;20108;-77
2021/10/06 08:06:01;;;;;;;3.40;1.30;;;;;;;9.64;97.22;95795.44;5092559;28;20208;-76
2021/10/06 08:08:26;;;;;;;4.90;1.45;;;;;;;9.83;95.65;95793.16;5076585;28;20063;-77
2021/10/06 08:10:57;;;;;;;4.88;1.33;;;;;;;9.82;94.54;95788.94;5094889;28;20040;-77
2021/10/06 08:13:23;;;;;;;3.65;1.40;;;;;;;9.81;96.18;95795.25;5089318;28;20040;-76
2021/10/06 08:15:51;;;;;;;4.18;1.40;;;;;;;9.99;95.42;95799.25;5076947;28;20043;-76
2021/10/06 08:18:16;;;;;;;10.25;1.75;;;;;;;10.07;92.77;95800.59;5085680;28;20045;-76
2021/10/06 08:20:43;;;;;;;5.60;1.50;;;;;;;10.06;91.00;95799.00;5082278;28;20041;-75
2021/10/06 08:23:10;;;;;;;3.60;1.27;;;;;;;10.12;93.51;95803.22;5056453;28;20036;-76
2021/10/06 08:25:35;;;;;;;6.40;1.40;;;;;;;10.32;92.11;95801.72;5054075;28;20063;-76
2021/10/06 08:28:01;;;;;;;3.13;1.40;;;;;;;10.31;90.35;95797.50;5077765;28;20422;-76
2021/10/06 08:30:28;;;;;;;5.63;1.50;;;;;;;10.36;92.39;95802.81;5067041;28;20494;-76
2021/10/06 08:32:54;;;;;;;3.67;1.40;;;;;;;10.57;93.50;95801.78;5066593;28;20125;-76
2021/10/06 08:35:19;;;;;;;4.65;1.40;;;;;;;10.53;88.09;95799.91;5065304;28;20494;-76
2021/10/06 08:37:45;;;;;;;2.88;1.35;;;;;;;10.54;87.65;95804.94;5059321;28;20044;-77
2021/10/06 08:40:11;;;;;;;2.00;1.35;;;;;;;10.58;89.54;95805.19;5066154;28;20048;-76
2021/10/06 08:42:38;;;;;;;4.05;1.30;;;;;;;10.66;91.21;95806.50;5066412;28;20044;-77
2021/10/06 08:45:09;;;;;;;2.83;1.45;;;;;;;10.65;88.05;95810.22;5064477;28;20037;-75
2021/10/06 08:47:40;;;;;;;2.42;1.40;;;;;;;10.77;89.32;95816.00;5049623;28;20041;-76
2021/10/06 08:50:08;;;;;;;7.32;1.55;;;;;;;10.66;87.40;95830.19;5066365;28;20044;-77
2021/10/06 08:52:34;;;;;;;3.35;1.98;;;;;;;10.70;87.55;95818.09;5066943;28;20037;-76
2021/10/06 08:55:05;;;;;;;6.35;1.50;;;;;;;10.76;89.03;95811.81;5036802;28;20518;-76
2021/10/06 08:57:32;;;;;;;4.97;1.30;;;;;;;10.81;87.22;95824.19;5048264;28;20490;-76
2021/10/06 08:59:58;;;;;;;5.60;1.35;;;;;;;10.89;85.50;95813.91;5066591;28;20706;-75
2021/10/06 09:02:23;;;;;;;4.45;1.23;;;;;;;10.77;84.13;95818.63;5044739;28;20045;-76
2021/10/06 09:04:50;;;;;;;3.83;1.40;;;;;;;10.86;86.73;95824.97;5067436;28;20051;-76
2021/10/06 09:07:16;;;;;;;4.50;1.50;;;;;;;10.81;83.96;95813.66;5047527;28;20091;-76
2021/10/06 09:09:42;;;;;;;8.48;1.60;;;;;;;10.90;86.43;95823.41;5067948;28;20421;-76
2021/10/06 09:12:17;;;;;;;3.28;1.58;;;;;;;11.12;87.12;95824.97;5067279;28;20044;-76
2021/10/06 09:14:47;;;;;;;4.88;1.48;;;;;;;11.23;83.23;95831.81;5068090;28;20072;-76
2021/10/06 09:17:20;;;;;;;4.43;1.45;;;;;;;11.30;84.49;95828.09;5062379;28;20493;-75
2021/10/06 09:19:49;;;;;;;2.92;1.40;;;;;;;11.37;83.43;95832.03;5050671;28;20124;-77
2021/10/06 09:22:26;;;;;;;3.70;1.50;;;;;;;11.39;83.36;95839.69;5069211;28;20049;-76
2021/10/06 09:24:57;;;;;;;5.70;1.50;;;;;;;11.40;83.00;95842.03;5051660;28;20463;-77
2021/10/06 09:27:34;;;;;;;7.63;1.70;;;;;;;11.50;83.38;95835.19;5055740;28;20074;-77
2021/10/06 09:30:06;;;;;;;6.22;1.50;;;;;;;11.48;83.54;95840.72;5070232;28;20037;-75
2021/10/06 09:32:43;;;;;;;2.40;1.10;;;;;;;11.44;81.09;95837.03;5055574;28;20052;-74
2021/10/06 09:35:20;;;;;;;3.50;1.42;;;;;;;11.38;82.88;95853.94;5058187;28;20041;-76
2021/10/06 09:37:48;;;;;;;5.88;1.60;;;;;;;11.26;80.64;95852.34;5066593;28;20059;-76
2021/10/06 09:40:17;;;;;;;2.80;1.48;;;;;;;11.09;82.02;95842.09;5068764;28;20055;-76
2021/10/06 09:42:47;;;;;;;2.58;1.50;;;;;;;11.17;81.80;95843.38;5068164;28;20048;-76
2021/10/06 09:45:34;;;;;;;2.80;1.20;;;;;;;11.23;81.23;95847.63;5048181;28;20049;-76
2021/10/06 09:48:03;;;;;;;2.35;1.30;;;;;;;11.29;81.36;95866.03;5049279;28;20087;-76
2021/10/06 09:50:30;;;;;;;3.63;1.48;;;;;;;11.42;82.26;95857.59;5049128;28;20041;-76
2021/10/06 09:53:04;;;;;;;6.80;1.40;;;;;;;11.20;80.58;95858.66;5066920;28;20047;-77
2021/10/06 09:55:35;;;;;;;3.13;1.27;;;;;;;11.09;81.22;95859.72;5047025;28;20040;-76
2021/10/06 09:58:01;;;;;;;4.95;1.80;;;;;;;11.04;81.43;95870.25;5047368;28;20060;-77
2021/10/06 10:00:27;;;;;;;7.05;1.38;;;;;;;10.90;82.70;95865.53;5066846;28;20063;-77
2021/10/06 10:02:53;;;;;;;4.95;1.58;;;;;;;11.07;82.62;95880.25;5052449;28;20506;-77
2021/10/06 10:05:19;;;;;;;1.58;1.10;;;;;;;11.09;81.20;95867.63;5068737;28;20721;-78
2021/10/06 10:07:45;;;;;;;1.55;1.30;;;;;;;11.06;81.65;95873.41;5068095;28;20025;-78
2021/10/06 10:10:12;;;;;;;5.50;1.50;;;;;;;11.22;82.95;95867.09;5068934;28;20131;-77
2021/10/06 10:12:38;;;;;;;3.38;1.20;;;;;;;11.23;80.31;95860.78;5070735;28;20155;-77
2021/10/06 10:15:05;;;;;;;3.88;1.45;;;;;;;11.31;81.16;95874.47;5069804;28;20044;-78
2021/10/06 10:17:30;;;;;;;4.38;1.30;;;;;;;11.34;80.65;95864.19;5069238;28;20036;-78
2021/10/06 10:19:56;;;;;;;6.55;1.25;;;;;;;11.50;81.65;95862.31;5068760;28;20045;-77
2021/10/06 10:22:24;;;;;;;5.40;1.40;;;;;;;11.74;79.33;95859.13;5069161;28;20118;-77
2021/10/06 10:24:52;;;;;;;3.50;1.33;;;;;;;12.17;78.07;95859.53;5070299;28;20040;-76
2021/10/06 10:27:23;;;;;;;3.92;1.30;;;;;;;12.97;75.24;95866.47;5052745;28;20036;-76
2021/10/06 10:30:03;;;;;;;4.53;1.15;;;;;;;13.00;73.19;95855.34;5068944;28;20124;-78
2021/10/06 10:32:41;;;;;;;7.93;1.50;;;;;;;13.04;72.76;95865.38;5052368;28;20060;-78
2021/10/06 10:35:18;;;;;;;3.08;1.40;;;;;;;12.51;72.56;95874.66;5070700;28;20041;-78
2021/10/06 10:37:51;;;;;;;6.47;1.33;;;;;;;13.11;70.99;95871.13;5060373;28;20051;-78
2021/10/06 10:40:34;;;;;;;5.28;1.25;;;;;;;13.80;67.72;95873.72;5065126;28;20036;-76
2021/10/06 10:43:12;;;;;;;3.33;1.35;;;;;;;13.17;69.90;95864.72;5065510;28;20043;-78
2021/10/06 10:45:47;;;;;;;5.18;1.35;;;;;;;13.31;70.51;95865.66;5067903;28;20445;-76
2021/10/06 10:48:16;;;;;;;2.67;1.30;;;;;;;13.17;69.58;95859.44;5069664;28;20568;-77
2021/10/06 10:50:42;;;;;;;1.63;1.05;;;;;;;13.85;67.59;95868.38;5069198;28;20137;-77
2021/10/06 10:53:08;;;;;;;3.92;1.30;;;;;;;14.65;66.31;95858.97;5052497;28;20067;-77
2021/10/06 10:55:52;;;;;;;2.10;1.08;;;;;;;15.09;62.25;95856.19;5066442;28;20099;-76
2021/10/06 10:59:03;;;;;;;1.97;1.10;;;;;;;14.99;63.09;95855.28;5069592;28;20145;-76
2021/10/06 11:01:40;;;;;;;4.90;1.83;;;;;;;15.46;62.06;95850.03;5044783;28;20509;-76
2021/10/06 11:04:24;;;;;;;4.03;1.20;;;;;;;15.59;61.35;95843.16;5068285;28;20079;-76
2021/10/06 11:07:11;;;;;;;2.38;1.10;;;;;;;15.59;58.65;95837.84;5052243;28;20052;-76
2021/10/06 11:09:38;;;;;;;2.25;1.10;;;;;;;16.71;57.59;95839.34;5069187;28;20087;-76
2021/10/06 11:12:07;;;;;;;2.22;0.93;;;;;;;16.17;58.35;95841.03;5051476;28;20041;-76
2021/10/06 11:14:43;;;;;;;3.05;1.02;;;;;;;16.84;54.96;95836.94;5062468;28;20128;-76
2021/10/06 11:17:15;;;;;;;3.92;1.10;;;;;;;16.18;55.06;95837.31;5066485;28;20739;-76
2021/10/06 11:19:47;;;;;;;2.30;1.10;;;;;;;15.83;58.76;95836.91;5069171;28;20467;-77
2021/10/06 11:22:22;;;;;;;3.08;1.20;;;;;;;15.37;55.27;95841.94;5067977;28;20051;-76
2021/10/06 11:24:51;;;;;;;;;;;;;;;15.10;57.18;95837.34;5068638;28;20033;-75
2021/10/06 11:27:18;;;;;;;10.95;1.42;;;;;;;14.97;61.39;95833.59;5067229;28;20336;-78
2021/10/06 11:29:48;;;;;;;3.25;1.10;;;;;;;15.49;56.17;95827.44;5068656;28;20056;-77
2021/10/06 11:32:14;;;;;;;3.70;1.13;;;;;;;14.65;59.86;95829.81;5068230;28;20040;-77
2021/10/06 11:34:44;;;;;;;4.13;1.20;;;;;;;14.28;59.55;95828.72;5065724;28;20482;-77